sensor_id;sensor_type;location;lat;lon;timestamp;P1;durP1;ratioP1;P2;durP2;ratioP2
15443;SDS011;7822;48.146;11.576;2022-10-14T00:02:05;5.37;;;3.20;;
15443;SDS011;7822;48.146;11.576;2022-10-14T00:04:33;4.77;;;3.73;;
15443;SDS011;7822;48.146;11.576;2022-10-14T00:07:01;3.30;;;3.00;;
15443;SDS011;7822;48.146;11.576;2022-10-14T00:09:28;3.67;;;3.30;;
15443;SDS011;7822;48.146;11.576;2022-10-14T00:11:56;4.70;;;3.23;;
15443;SDS011;7822;48.146;11.576;2022-10-14T00:14:25;3.73;;;3.40;;
15443;SDS011;7822;48.146;11.576;2022-10-14T00:16:53;3.27;;;2.97;;
15443;SDS011;7822;48.146;11.576;2022-10-14T00:19:20;4.17;;;3.07;;
15443;SDS011;7822;48.146;11.576;2022-10-14T00:21:48;5.57;;;3.53;;
15443;SDS011;7822;48.146;11.576;2022-10-14T00:24:16;4.40;;;2.87;;
15443;SDS011;7822;48.146;11.576;2022-10-14T00:26:44;3.20;;;2.90;;
15443;SDS011;7822;48.146;11.576;2022-10-14T00:29:13;4.47;;;2.97;;
15443;SDS011;7822;48.146;11.576;2022-10-14T00:31:45;2.77;;;2.10;;
15443;SDS011;7822;48.146;11.576;2022-10-14T00:34:13;4.20;;;2.30;;
15443;SDS011;7822;48.146;11.576;2022-10-14T00:36:41;2.40;;;2.07;;
15443;SDS011;7822;48.146;11.576;2022-10-14T00:39:09;3.20;;;2.37;;
15443;SDS011;7822;48.146;11.576;2022-10-14T00:41:37;3.93;;;2.10;;
15443;SDS011;7822;48.146;11.576;2022-10-14T00:44:06;2.80;;;2.50;;
15443;SDS011;7822;48.146;11.576;2022-10-14T00:46:55;3.87;;;2.40;;
15443;SDS011;7822;48.146;11.576;2022-10-14T00:49:24;3.73;;;2.60;;
15443;SDS011;7822;48.146;11.576;2022-10-14T00:51:54;2.10;;;2.00;;
15443;SDS011;7822;48.146;11.576;2022-10-14T00:54:31;2.53;;;2.33;;
15443;SDS011;7822;48.146;11.576;2022-10-14T00:57:02;3.80;;;2.40;;
15443;SDS011;7822;48.146;11.576;2022-10-14T00:59:30;3.93;;;2.20;;
15443;SDS011;7822;48.146;11.576;2022-10-14T01:02:00;2.33;;;2.13;;
15443;SDS011;7822;48.146;11.576;2022-10-14T01:04:28;3.67;;;2.70;;
15443;SDS011;7822;48.146;11.576;2022-10-14T01:06:58;4.40;;;2.70;;
15443;SDS011;7822;48.146;11.576;2022-10-14T01:09:34;3.47;;;2.37;;
15443;SDS011;7822;48.146;11.576;2022-10-14T01:12:07;2.97;;;2.23;;
15443;SDS011;7822;48.146;11.576;2022-10-14T01:14:56;2.90;;;2.27;;
15443;SDS011;7822;48.146;11.576;2022-10-14T01:17:34;3.30;;;2.30;;
15443;SDS011;7822;48.146;11.576;2022-10-14T01:20:24;2.63;;;2.23;;
15443;SDS011;7822;48.146;11.576;2022-10-14T01:26:18;3.43;;;2.53;;
15443;SDS011;7822;48.146;11.576;2022-10-14T01:29:00;2.40;;;2.20;;
15443;SDS011;7822;48.146;11.576;2022-10-14T01:31:43;3.27;;;1.80;;
15443;SDS011;7822;48.146;11.576;2022-10-14T01:34:16;2.83;;;2.00;;
15443;SDS011;7822;48.146;11.576;2022-10-14T01:36:50;2.17;;;1.87;;
15443;SDS011;7822;48.146;11.576;2022-10-14T01:39:22;2.33;;;1.53;;
15443;SDS011;7822;48.146;11.576;2022-10-14T01:41:55;2.67;;;1.63;;
15443;SDS011;7822;48.146;11.576;2022-10-14T01:44:27;1.90;;;1.67;;
15443;SDS011;7822;48.146;11.576;2022-10-14T01:46:58;2.57;;;1.60;;
15443;SDS011;7822;48.146;11.576;2022-10-14T01:49:29;2.83;;;1.30;;
15443;SDS011;7822;48.146;11.576;2022-10-14T01:52:01;1.40;;;1.30;;
15443;SDS011;7822;48.146;11.576;2022-10-14T01:54:35;1.57;;;1.47;;
15443;SDS011;7822;48.146;11.576;2022-10-14T01:57:06;1.37;;;1.27;;
15443;SDS011;7822;48.146;11.576;2022-10-14T01:59:37;2.43;;;1.20;;
15443;SDS011;7822;48.146;11.576;2022-10-14T02:02:09;2.10;;;1.40;;
15443;SDS011;7822;48.146;11.576;2022-10-14T02:04:38;1.50;;;1.40;;
15443;SDS011;7822;48.146;11.576;2022-10-14T02:07:07;1.67;;;1.20;;
15443;SDS011;7822;48.146;11.576;2022-10-14T02:09:41;1.50;;;1.13;;
15443;SDS011;7822;48.146;11.576;2022-10-14T02:12:21;1.40;;;1.20;;
15443;SDS011;7822;48.146;11.576;2022-10-14T02:14:56;1.50;;;1.40;;
15443;SDS011;7822;48.146;11.576;2022-10-14T02:17:32;3.20;;;1.80;;
15443;SDS011;7822;48.146;11.576;2022-10-14T02:20:06;1.57;;;1.33;;
15443;SDS011;7822;48.146;11.576;2022-10-14T02:22:40;2.17;;;1.27;;
15443;SDS011;7822;48.146;11.576;2022-10-14T02:25:12;3.70;;;1.73;;
15443;SDS011;7822;48.146;11.576;2022-10-14T02:27:44;1.83;;;1.50;;
15443;SDS011;7822;48.146;11.576;2022-10-14T02:30:14;2.03;;;1.80;;
15443;SDS011;7822;48.146;11.576;2022-10-14T02:32:47;2.00;;;1.40;;
15443;SDS011;7822;48.146;11.576;2022-10-14T02:35:17;3.30;;;1.80;;
15443;SDS011;7822;48.146;11.576;2022-10-14T02:37:46;1.97;;;1.37;;
15443;SDS011;7822;48.146;11.576;2022-10-14T02:40:17;1.83;;;1.57;;
15443;SDS011;7822;48.146;11.576;2022-10-14T02:42:49;3.43;;;1.70;;
15443;SDS011;7822;48.146;11.576;2022-10-14T02:45:17;2.27;;;1.57;;
15443;SDS011;7822;48.146;11.576;2022-10-14T02:47:47;2.97;;;1.77;;
15443;SDS011;7822;48.146;11.576;2022-10-14T02:50:15;2.13;;;1.90;;
15443;SDS011;7822;48.146;11.576;2022-10-14T02:52:44;2.90;;;1.77;;
15443;SDS011;7822;48.146;11.576;2022-10-14T02:55:11;1.70;;;1.27;;
15443;SDS011;7822;48.146;11.576;2022-10-14T02:57:39;2.43;;;1.60;;
15443;SDS011;7822;48.146;11.576;2022-10-14T03:00:07;3.37;;;1.93;;
15443;SDS011;7822;48.146;11.576;2022-10-14T03:02:36;2.43;;;1.77;;
15443;SDS011;7822;48.146;11.576;2022-10-14T03:05:05;2.30;;;1.60;;
15443;SDS011;7822;48.146;11.576;2022-10-14T03:07:33;2.87;;;1.53;;
15443;SDS011;7822;48.146;11.576;2022-10-14T03:10:01;3.07;;;1.80;;
15443;SDS011;7822;48.146;11.576;2022-10-14T03:12:29;2.13;;;1.87;;
15443;SDS011;7822;48.146;11.576;2022-10-14T03:14:56;3.17;;;1.50;;
15443;SDS011;7822;48.146;11.576;2022-10-14T03:17:24;3.40;;;1.63;;
15443;SDS011;7822;48.146;11.576;2022-10-14T03:19:52;4.70;;;1.87;;
15443;SDS011;7822;48.146;11.576;2022-10-14T03:22:20;1.57;;;1.47;;
15443;SDS011;7822;48.146;11.576;2022-10-14T03:24:49;5.20;;;1.90;;
15443;SDS011;7822;48.146;11.576;2022-10-14T03:27:16;1.80;;;1.70;;
15443;SDS011;7822;48.146;11.576;2022-10-14T03:29:44;2.03;;;1.50;;
15443;SDS011;7822;48.146;11.576;2022-10-14T03:32:12;3.10;;;1.80;;
15443;SDS011;7822;48.146;11.576;2022-10-14T03:34:40;2.80;;;1.80;;
15443;SDS011;7822;48.146;11.576;2022-10-14T03:37:07;2.30;;;1.83;;
15443;SDS011;7822;48.146;11.576;2022-10-14T03:39:36;3.00;;;2.27;;
15443;SDS011;7822;48.146;11.576;2022-10-14T03:42:04;3.50;;;2.20;;
15443;SDS011;7822;48.146;11.576;2022-10-14T03:44:32;2.17;;;1.97;;
15443;SDS011;7822;48.146;11.576;2022-10-14T03:46:59;3.00;;;2.13;;
15443;SDS011;7822;48.146;11.576;2022-10-14T03:49:27;2.60;;;2.17;;
15443;SDS011;7822;48.146;11.576;2022-10-14T03:51:54;2.77;;;2.40;;
15443;SDS011;7822;48.146;11.576;2022-10-14T03:54:22;3.07;;;2.47;;
15443;SDS011;7822;48.146;11.576;2022-10-14T03:56:51;2.60;;;2.37;;
15443;SDS011;7822;48.146;11.576;2022-10-14T03:59:19;2.50;;;2.30;;
15443;SDS011;7822;48.146;11.576;2022-10-14T04:01:46;3.47;;;2.33;;
15443;SDS011;7822;48.146;11.576;2022-10-14T04:04:14;3.23;;;2.10;;
15443;SDS011;7822;48.146;11.576;2022-10-14T04:06:42;2.63;;;2.43;;
15443;SDS011;7822;48.146;11.576;2022-10-14T04:09:09;2.20;;;2.00;;
15443;SDS011;7822;48.146;11.576;2022-10-14T04:11:37;2.50;;;1.93;;
15443;SDS011;7822;48.146;11.576;2022-10-14T04:14:06;2.43;;;2.10;;
15443;SDS011;7822;48.146;11.576;2022-10-14T04:16:33;3.23;;;2.00;;
15443;SDS011;7822;48.146;11.576;2022-10-14T04:19:01;2.10;;;1.80;;
15443;SDS011;7822;48.146;11.576;2022-10-14T04:21:29;1.93;;;1.83;;
15443;SDS011;7822;48.146;11.576;2022-10-14T04:23:56;2.63;;;2.00;;
15443;SDS011;7822;48.146;11.576;2022-10-14T04:26:24;2.67;;;1.90;;
15443;SDS011;7822;48.146;11.576;2022-10-14T04:28:52;3.27;;;2.00;;
15443;SDS011;7822;48.146;11.576;2022-10-14T04:31:21;2.83;;;1.90;;
15443;SDS011;7822;48.146;11.576;2022-10-14T04:33:48;3.37;;;2.40;;
15443;SDS011;7822;48.146;11.576;2022-10-14T04:36:16;2.30;;;2.07;;
15443;SDS011;7822;48.146;11.576;2022-10-14T04:38:44;4.60;;;2.33;;
15443;SDS011;7822;48.146;11.576;2022-10-14T04:41:11;2.90;;;2.10;;
15443;SDS011;7822;48.146;11.576;2022-10-14T04:43:39;3.17;;;2.40;;
15443;SDS011;7822;48.146;11.576;2022-10-14T04:46:07;2.60;;;2.40;;
15443;SDS011;7822;48.146;11.576;2022-10-14T04:48:36;2.23;;;2.03;;
15443;SDS011;7822;48.146;11.576;2022-10-14T04:51:03;2.53;;;2.23;;
15443;SDS011;7822;48.146;11.576;2022-10-14T04:53:31;4.07;;;2.53;;
15443;SDS011;7822;48.146;11.576;2022-10-14T04:55:59;3.47;;;2.20;;
15443;SDS011;7822;48.146;11.576;2022-10-14T04:58:26;2.80;;;2.20;;
15443;SDS011;7822;48.146;11.576;2022-10-14T05:00:54;2.77;;;1.97;;
15443;SDS011;7822;48.146;11.576;2022-10-14T05:03:22;3.40;;;2.00;;
15443;SDS011;7822;48.146;11.576;2022-10-14T05:05:51;3.20;;;2.43;;
15443;SDS011;7822;48.146;11.576;2022-10-14T05:08:18;2.63;;;2.27;;
15443;SDS011;7822;48.146;11.576;2022-10-14T05:10:46;2.20;;;2.00;;
15443;SDS011;7822;48.146;11.576;2022-10-14T05:13:14;2.90;;;2.40;;
15443;SDS011;7822;48.146;11.576;2022-10-14T05:15:42;2.57;;;2.30;;
15443;SDS011;7822;48.146;11.576;2022-10-14T05:18:10;2.37;;;2.10;;
15443;SDS011;7822;48.146;11.576;2022-10-14T05:20:38;2.80;;;1.83;;
15443;SDS011;7822;48.146;11.576;2022-10-14T05:23:07;3.00;;;1.93;;
15443;SDS011;7822;48.146;11.576;2022-10-14T05:25:35;2.47;;;2.10;;
15443;SDS011;7822;48.146;11.576;2022-10-14T05:28:02;3.10;;;2.20;;
15443;SDS011;7822;48.146;11.576;2022-10-14T05:30:30;3.27;;;2.53;;
15443;SDS011;7822;48.146;11.576;2022-10-14T05:33:00;2.83;;;2.57;;
15443;SDS011;7822;48.146;11.576;2022-10-14T05:35:27;3.17;;;2.63;;
15443;SDS011;7822;48.146;11.576;2022-10-14T05:38:16;2.70;;;2.30;;
15443;SDS011;7822;48.146;11.576;2022-10-14T05:40:49;2.60;;;2.23;;
15443;SDS011;7822;48.146;11.576;2022-10-14T05:43:18;1.93;;;1.80;;
15443;SDS011;7822;48.146;11.576;2022-10-14T05:45:45;2.80;;;2.10;;
15443;SDS011;7822;48.146;11.576;2022-10-14T05:48:13;2.10;;;1.60;;
15443;SDS011;7822;48.146;11.576;2022-10-14T05:50:41;2.43;;;2.10;;
15443;SDS011;7822;48.146;11.576;2022-10-14T05:53:09;2.57;;;2.37;;
15443;SDS011;7822;48.146;11.576;2022-10-14T05:55:38;2.37;;;1.87;;
15443;SDS011;7822;48.146;11.576;2022-10-14T05:58:06;2.60;;;2.13;;
15443;SDS011;7822;48.146;11.576;2022-10-14T06:00:34;3.40;;;2.25;;
15443;SDS011;7822;48.146;11.576;2022-10-14T06:03:01;5.63;;;2.00;;
15443;SDS011;7822;48.146;11.576;2022-10-14T06:05:29;2.60;;;2.00;;
15443;SDS011;7822;48.146;11.576;2022-10-14T06:07:57;2.03;;;1.73;;
15443;SDS011;7822;48.146;11.576;2022-10-14T06:10:25;2.07;;;1.90;;
15443;SDS011;7822;48.146;11.576;2022-10-14T06:12:54;2.37;;;2.07;;
15443;SDS011;7822;48.146;11.576;2022-10-14T06:15:22;3.10;;;1.60;;
15443;SDS011;7822;48.146;11.576;2022-10-14T06:17:50;2.33;;;1.77;;
15443;SDS011;7822;48.146;11.576;2022-10-14T06:20:18;3.80;;;2.00;;
15443;SDS011;7822;48.146;11.576;2022-10-14T06:22:46;7.47;;;2.20;;
15443;SDS011;7822;48.146;11.576;2022-10-14T06:25:13;2.40;;;1.53;;
15443;SDS011;7822;48.146;11.576;2022-10-14T06:27:41;1.93;;;1.73;;
15443;SDS011;7822;48.146;11.576;2022-10-14T06:30:11;2.07;;;1.80;;
15443;SDS011;7822;48.146;11.576;2022-10-14T06:32:39;2.73;;;2.20;;
15443;SDS011;7822;48.146;11.576;2022-10-14T06:35:07;4.87;;;2.20;;
15443;SDS011;7822;48.146;11.576;2022-10-14T06:37:35;2.87;;;2.20;;
15443;SDS011;7822;48.146;11.576;2022-10-14T06:40:03;2.40;;;1.90;;
15443;SDS011;7822;48.146;11.576;2022-10-14T06:42:32;2.73;;;1.73;;
15443;SDS011;7822;48.146;11.576;2022-10-14T06:45:00;5.00;;;1.77;;
15443;SDS011;7822;48.146;11.576;2022-10-14T06:47:29;2.33;;;1.50;;
15443;SDS011;7822;48.146;11.576;2022-10-14T06:49:58;3.80;;;2.10;;
15443;SDS011;7822;48.146;11.576;2022-10-14T06:52:25;2.57;;;1.77;;
15443;SDS011;7822;48.146;11.576;2022-10-14T06:54:53;4.27;;;1.70;;
15443;SDS011;7822;48.146;11.576;2022-10-14T06:57:21;3.00;;;1.73;;
15443;SDS011;7822;48.146;11.576;2022-10-14T06:59:50;2.40;;;2.00;;
15443;SDS011;7822;48.146;11.576;2022-10-14T07:02:17;2.20;;;1.80;;
15443;SDS011;7822;48.146;11.576;2022-10-14T07:04:47;2.77;;;1.77;;
15443;SDS011;7822;48.146;11.576;2022-10-14T07:07:14;2.73;;;1.93;;
15443;SDS011;7822;48.146;11.576;2022-10-14T07:09:42;4.23;;;2.00;;
15443;SDS011;7822;48.146;11.576;2022-10-14T07:12:11;2.23;;;1.80;;
15443;SDS011;7822;48.146;11.576;2022-10-14T07:14:39;3.27;;;1.70;;
15443;SDS011;7822;48.146;11.576;2022-10-14T07:17:07;2.67;;;1.70;;
15443;SDS011;7822;48.146;11.576;2022-10-14T07:19:34;2.37;;;1.67;;
15443;SDS011;7822;48.146;11.576;2022-10-14T07:22:03;6.27;;;1.80;;
15443;SDS011;7822;48.146;11.576;2022-10-14T07:24:31;2.70;;;2.20;;
15443;SDS011;7822;48.146;11.576;2022-10-14T07:26:59;3.47;;;2.27;;
15443;SDS011;7822;48.146;11.576;2022-10-14T07:29:32;2.03;;;1.83;;
15443;SDS011;7822;48.146;11.576;2022-10-14T07:31:59;3.60;;;2.00;;
15443;SDS011;7822;48.146;11.576;2022-10-14T07:34:27;5.40;;;3.57;;
15443;SDS011;7822;48.146;11.576;2022-10-14T07:36:55;3.47;;;2.67;;
15443;SDS011;7822;48.146;11.576;2022-10-14T07:39:24;4.90;;;2.67;;
15443;SDS011;7822;48.146;11.576;2022-10-14T07:41:52;3.03;;;2.23;;
15443;SDS011;7822;48.146;11.576;2022-10-14T07:44:21;4.30;;;2.80;;
15443;SDS011;7822;48.146;11.576;2022-10-14T07:46:52;2.13;;;1.93;;
15443;SDS011;7822;48.146;11.576;2022-10-14T07:49:20;3.50;;;2.13;;
15443;SDS011;7822;48.146;11.576;2022-10-14T07:51:49;2.47;;;1.80;;
15443;SDS011;7822;48.146;11.576;2022-10-14T07:54:17;3.57;;;2.10;;
15443;SDS011;7822;48.146;11.576;2022-10-14T07:56:48;3.10;;;1.63;;
15443;SDS011;7822;48.146;11.576;2022-10-14T07:59:16;2.00;;;1.80;;
15443;SDS011;7822;48.146;11.576;2022-10-14T08:01:44;4.40;;;1.70;;
15443;SDS011;7822;48.146;11.576;2022-10-14T08:04:12;2.80;;;1.70;;
15443;SDS011;7822;48.146;11.576;2022-10-14T08:06:40;2.80;;;1.80;;
15443;SDS011;7822;48.146;11.576;2022-10-14T08:09:10;2.57;;;1.80;;
15443;SDS011;7822;48.146;11.576;2022-10-14T08:11:38;3.87;;;2.47;;
15443;SDS011;7822;48.146;11.576;2022-10-14T08:14:08;1.73;;;1.63;;
15443;SDS011;7822;48.146;11.576;2022-10-14T08:16:36;4.17;;;1.17;;
15443;SDS011;7822;48.146;11.576;2022-10-14T08:19:05;1.77;;;1.53;;
15443;SDS011;7822;48.146;11.576;2022-10-14T08:21:39;2.33;;;1.30;;
15443;SDS011;7822;48.146;11.576;2022-10-14T08:24:08;2.33;;;1.20;;
15443;SDS011;7822;48.146;11.576;2022-10-14T08:26:36;2.67;;;1.10;;
15443;SDS011;7822;48.146;11.576;2022-10-14T08:29:06;3.53;;;2.03;;
15443;SDS011;7822;48.146;11.576;2022-10-14T08:31:37;1.93;;;1.67;;
15443;SDS011;7822;48.146;11.576;2022-10-14T08:34:05;2.77;;;1.50;;
15443;SDS011;7822;48.146;11.576;2022-10-14T08:36:32;2.27;;;1.30;;
15443;SDS011;7822;48.146;11.576;2022-10-14T08:39:00;1.97;;;1.30;;
15443;SDS011;7822;48.146;11.576;2022-10-14T08:41:36;1.67;;;1.10;;
15443;SDS011;7822;48.146;11.576;2022-10-14T08:44:16;1.30;;;1.00;;
15443;SDS011;7822;48.146;11.576;2022-10-14T08:46:49;2.80;;;1.20;;
15443;SDS011;7822;48.146;11.576;2022-10-14T08:49:21;1.73;;;1.27;;
15443;SDS011;7822;48.146;11.576;2022-10-14T08:51:56;1.43;;;0.90;;
15443;SDS011;7822;48.146;11.576;2022-10-14T08:54:29;1.30;;;1.20;;
15443;SDS011;7822;48.146;11.576;2022-10-14T08:57:02;3.23;;;1.07;;
15443;SDS011;7822;48.146;11.576;2022-10-14T08:59:33;1.47;;;0.90;;
15443;SDS011;7822;48.146;11.576;2022-10-14T09:02:13;1.93;;;1.03;;
15443;SDS011;7822;48.146;11.576;2022-10-14T09:04:47;1.27;;;0.90;;
15443;SDS011;7822;48.146;11.576;2022-10-14T09:07:16;1.10;;;0.90;;
15443;SDS011;7822;48.146;11.576;2022-10-14T09:09:47;1.20;;;1.10;;
15443;SDS011;7822;48.146;11.576;2022-10-14T09:12:19;2.33;;;1.10;;
15443;SDS011;7822;48.146;11.576;2022-10-14T09:14:53;0.90;;;0.80;;
15443;SDS011;7822;48.146;11.576;2022-10-14T09:17:29;0.80;;;0.80;;
15443;SDS011;7822;48.146;11.576;2022-10-14T09:20:05;2.27;;;0.80;;
15443;SDS011;7822;48.146;11.576;2022-10-14T09:22:41;1.10;;;1.00;;
15443;SDS011;7822;48.146;11.576;2022-10-14T09:25:11;0.97;;;0.73;;
15443;SDS011;7822;48.146;11.576;2022-10-14T09:27:40;0.90;;;0.90;;
15443;SDS011;7822;48.146;11.576;2022-10-14T09:30:13;1.10;;;0.90;;
15443;SDS011;7822;48.146;11.576;2022-10-14T09:32:43;1.10;;;0.90;;
15443;SDS011;7822;48.146;11.576;2022-10-14T09:35:15;1.40;;;0.80;;
15443;SDS011;7822;48.146;11.576;2022-10-14T09:37:49;2.77;;;0.80;;
15443;SDS011;7822;48.146;11.576;2022-10-14T09:40:18;0.93;;;0.70;;
15443;SDS011;7822;48.146;11.576;2022-10-14T09:42:54;1.47;;;0.93;;
15443;SDS011;7822;48.146;11.576;2022-10-14T09:45:27;0.70;;;0.63;;
15443;SDS011;7822;48.146;11.576;2022-10-14T09:47:57;2.10;;;1.17;;
15443;SDS011;7822;48.146;11.576;2022-10-14T09:50:34;0.60;;;0.60;;
15443;SDS011;7822;48.146;11.576;2022-10-14T09:53:06;0.93;;;0.57;;
15443;SDS011;7822;48.146;11.576;2022-10-14T09:55:44;1.47;;;0.70;;
15443;SDS011;7822;48.146;11.576;2022-10-14T09:58:15;1.30;;;0.87;;
15443;SDS011;7822;48.146;11.576;2022-10-14T10:00:46;1.60;;;0.70;;
15443;SDS011;7822;48.146;11.576;2022-10-14T10:06:04;1.67;;;1.23;;
15443;SDS011;7822;48.146;11.576;2022-10-14T10:08:34;0.70;;;0.53;;
15443;SDS011;7822;48.146;11.576;2022-10-14T10:11:04;1.23;;;0.70;;
15443;SDS011;7822;48.146;11.576;2022-10-14T10:13:36;1.90;;;1.00;;
15443;SDS011;7822;48.146;11.576;2022-10-14T10:16:19;1.07;;;0.70;;
15443;SDS011;7822;48.146;11.576;2022-10-14T10:18:49;3.07;;;1.00;;
15443;SDS011;7822;48.146;11.576;2022-10-14T10:21:21;1.00;;;0.70;;
15443;SDS011;7822;48.146;11.576;2022-10-14T10:23:53;1.20;;;0.60;;
15443;SDS011;7822;48.146;11.576;2022-10-14T10:26:23;0.73;;;0.73;;
15443;SDS011;7822;48.146;11.576;2022-10-14T10:28:55;2.00;;;1.00;;
15443;SDS011;7822;48.146;11.576;2022-10-14T10:31:38;0.73;;;0.60;;
15443;SDS011;7822;48.146;11.576;2022-10-14T10:37:23;0.80;;;0.80;;
15443;SDS011;7822;48.146;11.576;2022-10-14T10:40:08;0.63;;;0.63;;
15443;SDS011;7822;48.146;11.576;2022-10-14T10:42:51;2.57;;;0.80;;
15443;SDS011;7822;48.146;11.576;2022-10-14T10:45:30;4.33;;;1.10;;
15443;SDS011;7822;48.146;11.576;2022-10-14T10:48:10;0.90;;;0.90;;
15443;SDS011;7822;48.146;11.576;2022-10-14T10:50:46;1.30;;;1.10;;
15443;SDS011;7822;48.146;11.576;2022-10-14T10:53:26;0.87;;;0.87;;
15443;SDS011;7822;48.146;11.576;2022-10-14T10:56:06;3.07;;;1.10;;
15443;SDS011;7822;48.146;11.576;2022-10-14T10:58:39;1.73;;;1.00;;
15443;SDS011;7822;48.146;11.576;2022-10-14T11:01:13;1.80;;;0.93;;
15443;SDS011;7822;48.146;11.576;2022-10-14T11:03:55;1.10;;;0.80;;
15443;SDS011;7822;48.146;11.576;2022-10-14T11:06:37;3.57;;;0.93;;
15443;SDS011;7822;48.146;11.576;2022-10-14T11:09:29;0.90;;;0.70;;
15443;SDS011;7822;48.146;11.576;2022-10-14T11:12:23;1.13;;;0.93;;
15443;SDS011;7822;48.146;11.576;2022-10-14T11:18:07;0.80;;;0.70;;
15443;SDS011;7822;48.146;11.576;2022-10-14T11:20:42;1.08;;;0.90;;
15443;SDS011;7822;48.146;11.576;2022-10-14T11:23:24;2.40;;;0.80;;
15443;SDS011;7822;48.146;11.576;2022-10-14T11:26:05;1.10;;;1.00;;
15443;SDS011;7822;48.146;11.576;2022-10-14T11:28:42;1.00;;;0.80;;
15443;SDS011;7822;48.146;11.576;2022-10-14T11:31:19;1.33;;;0.65;;
15443;SDS011;7822;48.146;11.576;2022-10-14T11:33:59;1.52;;;0.70;;
15443;SDS011;7822;48.146;11.576;2022-10-14T11:36:42;0.73;;;0.70;;
15443;SDS011;7822;48.146;11.576;2022-10-14T11:39:25;1.57;;;0.77;;
15443;SDS011;7822;48.146;11.576;2022-10-14T11:42:14;1.90;;;1.00;;
15443;SDS011;7822;48.146;11.576;2022-10-14T11:44:56;1.33;;;1.10;;
15443;SDS011;7822;48.146;11.576;2022-10-14T11:47:34;1.50;;;1.10;;
15443;SDS011;7822;48.146;11.576;2022-10-14T11:50:11;1.48;;;1.08;;
15443;SDS011;7822;48.146;11.576;2022-10-14T11:52:47;1.17;;;1.02;;
15443;SDS011;7822;48.146;11.576;2022-10-14T11:55:21;1.02;;;0.90;;
15443;SDS011;7822;48.146;11.576;2022-10-14T11:57:50;1.92;;;0.98;;
15443;SDS011;7822;48.146;11.576;2022-10-14T12:00:20;1.00;;;0.90;;
15443;SDS011;7822;48.146;11.576;2022-10-14T12:03:28;2.45;;;1.00;;
15443;SDS011;7822;48.146;11.576;2022-10-14T12:06:10;1.30;;;1.00;;
15443;SDS011;7822;48.146;11.576;2022-10-14T12:08:44;1.67;;;0.90;;
15443;SDS011;7822;48.146;11.576;2022-10-14T12:11:19;1.90;;;1.10;;
15443;SDS011;7822;48.146;11.576;2022-10-14T12:13:55;2.22;;;1.10;;
15443;SDS011;7822;48.146;11.576;2022-10-14T12:16:29;0.90;;;0.90;;
15443;SDS011;7822;48.146;11.576;2022-10-14T12:18:57;1.27;;;0.90;;
15443;SDS011;7822;48.146;11.576;2022-10-14T12:21:27;1.83;;;1.00;;
15443;SDS011;7822;48.146;11.576;2022-10-14T12:24:02;1.80;;;1.00;;
15443;SDS011;7822;48.146;11.576;2022-10-14T12:26:47;1.20;;;0.82;;
15443;SDS011;7822;48.146;11.576;2022-10-14T12:29:18;1.25;;;1.15;;
15443;SDS011;7822;48.146;11.576;2022-10-14T12:31:50;1.88;;;1.17;;
15443;SDS011;7822;48.146;11.576;2022-10-14T12:34:33;1.60;;;0.80;;
15443;SDS011;7822;48.146;11.576;2022-10-14T12:40:27;1.83;;;1.00;;
15443;SDS011;7822;48.146;11.576;2022-10-14T12:43:12;1.10;;;1.00;;
15443;SDS011;7822;48.146;11.576;2022-10-14T12:45:50;2.45;;;1.15;;
15443;SDS011;7822;48.146;11.576;2022-10-14T12:48:28;1.67;;;0.90;;
15443;SDS011;7822;48.146;11.576;2022-10-14T12:51:05;2.73;;;1.27;;
15443;SDS011;7822;48.146;11.576;2022-10-14T12:53:37;1.10;;;1.00;;
15443;SDS011;7822;48.146;11.576;2022-10-14T12:56:08;3.07;;;1.00;;
15443;SDS011;7822;48.146;11.576;2022-10-14T12:58:37;1.10;;;0.90;;
15443;SDS011;7822;48.146;11.576;2022-10-14T13:01:14;1.60;;;0.90;;
15443;SDS011;7822;48.146;11.576;2022-10-14T13:03:44;1.73;;;1.10;;
15443;SDS011;7822;48.146;11.576;2022-10-14T13:06:26;2.20;;;1.02;;
15443;SDS011;7822;48.146;11.576;2022-10-14T13:18:39;2.35;;;1.00;;
15443;SDS011;7822;48.146;11.576;2022-10-14T13:21:25;1.63;;;1.00;;
15443;SDS011;7822;48.146;11.576;2022-10-14T13:23:58;1.97;;;1.10;;
15443;SDS011;7822;48.146;11.576;2022-10-14T13:26:47;1.83;;;1.00;;
15443;SDS011;7822;48.146;11.576;2022-10-14T13:29:45;2.27;;;0.80;;
15443;SDS011;7822;48.146;11.576;2022-10-14T13:32:33;1.85;;;0.80;;
15443;SDS011;7822;48.146;11.576;2022-10-14T13:35:15;1.55;;;0.90;;
15443;SDS011;7822;48.146;11.576;2022-10-14T13:37:52;2.13;;;1.17;;
15443;SDS011;7822;48.146;11.576;2022-10-14T13:40:24;1.63;;;0.70;;
15443;SDS011;7822;48.146;11.576;2022-10-14T13:42:55;1.27;;;1.03;;
15443;SDS011;7822;48.146;11.576;2022-10-14T13:45:28;1.60;;;1.10;;
15443;SDS011;7822;48.146;11.576;2022-10-14T13:48:03;2.53;;;1.10;;
15443;SDS011;7822;48.146;11.576;2022-10-14T13:50:33;1.53;;;0.90;;
15443;SDS011;7822;48.146;11.576;2022-10-14T13:53:04;0.90;;;0.80;;
15443;SDS011;7822;48.146;11.576;2022-10-14T13:55:43;1.20;;;0.93;;
15443;SDS011;7822;48.146;11.576;2022-10-14T13:58:19;2.47;;;0.80;;
15443;SDS011;7822;48.146;11.576;2022-10-14T14:00:51;1.10;;;1.00;;
15443;SDS011;7822;48.146;11.576;2022-10-14T14:03:28;4.23;;;1.47;;
15443;SDS011;7822;48.146;11.576;2022-10-14T14:06:01;0.80;;;0.80;;
15443;SDS011;7822;48.146;11.576;2022-10-14T14:08:35;1.80;;;1.30;;
15443;SDS011;7822;48.146;11.576;2022-10-14T14:11:16;1.10;;;1.00;;
15443;SDS011;7822;48.146;11.576;2022-10-14T14:13:46;2.33;;;1.20;;
15443;SDS011;7822;48.146;11.576;2022-10-14T14:16:27;1.87;;;0.97;;
15443;SDS011;7822;48.146;11.576;2022-10-14T14:18:57;2.20;;;1.10;;
15443;SDS011;7822;48.146;11.576;2022-10-14T14:21:35;1.50;;;1.20;;
15443;SDS011;7822;48.146;11.576;2022-10-14T14:24:06;1.23;;;1.13;;
15443;SDS011;7822;48.146;11.576;2022-10-14T14:26:41;3.07;;;1.23;;
15443;SDS011;7822;48.146;11.576;2022-10-14T14:29:13;1.60;;;1.30;;
15443;SDS011;7822;48.146;11.576;2022-10-14T14:31:43;2.83;;;1.40;;
15443;SDS011;7822;48.146;11.576;2022-10-14T14:34:32;2.77;;;1.97;;
15443;SDS011;7822;48.146;11.576;2022-10-14T14:37:03;1.27;;;1.17;;
15443;SDS011;7822;48.146;11.576;2022-10-14T14:39:55;1.30;;;1.20;;
15443;SDS011;7822;48.146;11.576;2022-10-14T14:42:24;2.20;;;1.40;;
15443;SDS011;7822;48.146;11.576;2022-10-14T14:44:53;1.90;;;1.13;;
15443;SDS011;7822;48.146;11.576;2022-10-14T14:47:25;3.50;;;1.60;;
15443;SDS011;7822;48.146;11.576;2022-10-14T14:49:54;2.40;;;1.67;;
15443;SDS011;7822;48.146;11.576;2022-10-14T14:52:45;2.37;;;1.40;;
15443;SDS011;7822;48.146;11.576;2022-10-14T14:55:33;2.03;;;1.33;;
15443;SDS011;7822;48.146;11.576;2022-10-14T14:58:12;3.30;;;1.60;;
15443;SDS011;7822;48.146;11.576;2022-10-14T15:00:48;1.80;;;1.40;;
15443;SDS011;7822;48.146;11.576;2022-10-14T15:03:16;1.33;;;1.20;;
15443;SDS011;7822;48.146;11.576;2022-10-14T15:05:48;2.70;;;2.23;;
15443;SDS011;7822;48.146;11.576;2022-10-14T15:08:19;3.90;;;1.30;;
15443;SDS011;7822;48.146;11.576;2022-10-14T15:10:48;1.77;;;1.47;;
15443;SDS011;7822;48.146;11.576;2022-10-14T15:13:24;1.43;;;1.13;;
15443;SDS011;7822;48.146;11.576;2022-10-14T15:15:56;1.57;;;1.33;;
15443;SDS011;7822;48.146;11.576;2022-10-14T15:18:24;3.23;;;1.20;;
15443;SDS011;7822;48.146;11.576;2022-10-14T15:21:04;1.93;;;1.30;;
15443;SDS011;7822;48.146;11.576;2022-10-14T15:23:41;1.30;;;1.20;;
15443;SDS011;7822;48.146;11.576;2022-10-14T15:26:19;2.87;;;2.33;;
15443;SDS011;7822;48.146;11.576;2022-10-14T15:29:02;3.05;;;2.53;;
15443;SDS011;7822;48.146;11.576;2022-10-14T15:31:47;1.53;;;1.40;;
15443;SDS011;7822;48.146;11.576;2022-10-14T15:34:31;2.50;;;1.50;;
15443;SDS011;7822;48.146;11.576;2022-10-14T15:37:00;3.40;;;2.20;;
15443;SDS011;7822;48.146;11.576;2022-10-14T15:39:29;2.40;;;1.40;;
15443;SDS011;7822;48.146;11.576;2022-10-14T15:41:57;4.00;;;2.23;;
15443;SDS011;7822;48.146;11.576;2022-10-14T15:44:24;3.13;;;1.80;;